Weather at Lethbridge / Anderson Field

Public forecast

Using degrees Celsius for public forecast. Weather courtesy of forecast.io.

Closest aviation weather report (METAR) to Lethbridge / Anderson Field

Closest report is Lethbridge County Airport, 1.9 nm (3.6 km) SSW.

2024/05/30 07:00 (retrieved 24 minutes ago)

CYQL 300700Z AUTO 28013KT 9SM BKN048 08/M01 A2997 RMK SLP156

Closest aviation forecast (TAF) to Lethbridge / Anderson Field

Closest forecast is Lethbridge County Airport, 1.9 nm (3.6 km) SSW.

2024/05/30 06:42 (retrieved 42 minutes ago)

TAF CYQL 300540Z 3006/3018 26018G28KT P6SM SCT160 TEMPO 3006/3010 BKN080 BKN120 FM301000 26018G28KT P6SM SCT080 FM301600 27020KT P6SM SCT080 TEMPO 3016/3018 P6SM -SHRA BKN060 RMK FCST BASED ON AUTO OBS NXT FCST BY 301200Z